createdAt,value
2019-05-02T00:01:36.190Z,98750.25
2019-05-02T00:04:05.300Z,98750.42
2019-05-02T00:06:38.046Z,98751.36
2019-05-02T00:09:09.156Z,98752.41
2019-05-02T00:11:37.898Z,98743.52
2019-05-02T00:14:07.506Z,98747.66
2019-05-02T00:16:36.080Z,98745.06
2019-05-02T00:19:09.274Z,98751.36
2019-05-02T00:21:38.218Z,98748.66
2019-05-02T00:24:07.605Z,98748.86
2019-05-02T00:26:36.193Z,98742.66
2019-05-02T00:29:04.825Z,98746.33
2019-05-02T00:31:33.469Z,98743.47
2019-05-02T00:34:02.098Z,98751.45
2019-05-02T00:36:30.747Z,98749.47
2019-05-02T00:38:59.385Z,98748.87
2019-05-02T00:41:27.961Z,98750.16
2019-05-02T00:43:56.459Z,98752.28
2019-05-02T00:46:25.093Z,98758.34
2019-05-02T00:48:59.856Z,98752.34
2019-05-02T00:51:26.767Z,98752.41
2019-05-02T00:53:56.093Z,98755.98
2019-05-02T00:56:24.708Z,98754.03
2019-05-02T00:58:53.351Z,98754.23
2019-05-02T01:01:31.021Z,98753.12
2019-05-02T01:04:07.514Z,98758.61
2019-05-02T01:06:36.468Z,98754.84
2019-05-02T01:09:10.968Z,98755.67
2019-05-02T01:11:40.506Z,98754.84
2019-05-02T01:14:09.145Z,98763.09
2019-05-02T01:16:37.783Z,98750.42
2019-05-02T01:19:06.423Z,98757.02
2019-05-02T01:21:38.837Z,98764.36
2019-05-02T01:24:05.441Z,98765.51
2019-05-02T01:26:35.645Z,98757.42
2019-05-02T01:29:11.624Z,98763.08
2019-05-02T01:31:54.706Z,98755.27
2019-05-02T01:34:34.819Z,98762.30
2019-05-02T01:37:12.419Z,98765.11
2019-05-02T01:39:42.683Z,98760.59
2019-05-02T01:42:08.698Z,98762.17
2019-05-02T01:44:37.994Z,98764.80
2019-05-02T01:47:06.662Z,98775.31
2019-05-02T01:49:35.273Z,98765.11
2019-05-02T01:52:03.915Z,98768.74
2019-05-02T01:54:32.450Z,98771.38
2019-05-02T01:57:03.932Z,98772.69
2019-05-02T01:59:34.005Z,98769.78
2019-05-02T02:02:01.707Z,98765.17
2019-05-02T02:04:30.392Z,98772.65
2019-05-02T02:06:58.953Z,98771.23
2019-05-02T02:09:27.598Z,98769.52
2019-05-02T02:11:56.240Z,98777.23
2019-05-02T02:14:24.801Z,98774.30
2019-05-02T02:16:53.454Z,98777.86
2019-05-02T02:19:23.738Z,98778.03
2019-05-02T02:22:10.319Z,98782.81
2019-05-02T02:24:46.555Z,98778.50
2019-05-02T02:27:15.191Z,98788.23
2019-05-02T02:29:44.405Z,98787.55
2019-05-02T02:32:20.181Z,98783.55
2019-05-02T02:34:44.340Z,98783.55
2019-05-02T02:37:15.195Z,98781.16
2019-05-02T02:39:48.412Z,98784.41
2019-05-02T02:42:13.583Z,98782.36
2019-05-02T02:44:46.563Z,98782.89
2019-05-02T02:47:18.879Z,98789.77
2019-05-02T02:49:45.505Z,98784.89
2019-05-02T02:52:14.131Z,98791.71
2019-05-02T02:54:44.777Z,98782.91
2019-05-02T02:57:21.927Z,98787.65
2019-05-02T02:59:43.435Z,98797.89
2019-05-02T03:02:12.400Z,98802.70
2019-05-02T03:04:44.013Z,98804.64
2019-05-02T03:07:11.529Z,98803.70
2019-05-02T03:09:40.201Z,98808.58
2019-05-02T03:12:22.342Z,98813.98
2019-05-02T03:14:52.663Z,98808.27
2019-05-02T03:17:26.449Z,98821.14
2019-05-02T03:19:54.399Z,98819.55
2019-05-02T03:22:22.001Z,98823.95
2019-05-02T03:24:50.571Z,98825.69
2019-05-02T03:27:19.224Z,98830.41
2019-05-02T03:29:47.780Z,98831.62
2019-05-02T03:32:32.250Z,98833.03
2019-05-02T03:34:52.225Z,98836.13
2019-05-02T03:37:17.755Z,98842.00
2019-05-02T03:39:49.679Z,98839.12
2019-05-02T03:42:16.681Z,98836.88
2019-05-02T03:44:55.216Z,98840.83
2019-05-02T03:47:15.619Z,98848.53
2019-05-02T03:49:48.969Z,98848.52
2019-05-02T03:52:14.819Z,98854.15
2019-05-02T03:54:50.029Z,98860.01
2019-05-02T03:57:13.750Z,98858.67
2019-05-02T03:59:42.429Z,98865.58
2019-05-02T04:02:13.899Z,98871.89
2019-05-02T04:04:41.520Z,98875.27
2019-05-02T04:07:10.195Z,98878.41
2019-05-02T04:09:42.234Z,98880.13
2019-05-02T04:12:18.721Z,98875.22
2019-05-02T04:14:39.815Z,98880.92
2019-05-02T04:17:10.465Z,98879.94
2019-05-02T04:19:39.700Z,98881.26
2019-05-02T04:22:11.883Z,98885.78
2019-05-02T04:24:39.672Z,98882.27
2019-05-02T04:27:08.346Z,98888.26
2019-05-02T04:29:37.421Z,98876.66
2019-05-02T04:32:11.619Z,98880.20
2019-05-02T04:34:36.379Z,98877.62
2019-05-02T04:37:05.030Z,98879.93
2019-05-02T04:39:33.659Z,98885.24
2019-05-02T04:42:05.324Z,98885.27
2019-05-02T04:44:43.597Z,98892.50
2019-05-02T04:47:11.048Z,98892.89
2019-05-02T04:49:36.002Z,98896.90
2019-05-02T04:52:07.870Z,98898.66
2019-05-02T04:54:34.036Z,98900.48
2019-05-02T04:57:08.587Z,98894.94
2019-05-02T04:59:36.000Z,98901.34
2019-05-02T05:02:04.724Z,98905.17
2019-05-02T05:04:42.001Z,98909.00
2019-05-02T05:07:03.671Z,98901.84
2019-05-02T05:09:32.181Z,98908.23
2019-05-02T05:12:02.566Z,98907.62
2019-05-02T05:14:38.181Z,98912.55
2019-05-02T05:17:01.470Z,98916.98
2019-05-02T05:19:32.739Z,98913.98
2019-05-02T05:22:04.962Z,98917.59
2019-05-02T05:24:42.168Z,98920.07
2019-05-02T05:27:13.109Z,98925.78
2019-05-02T05:29:38.812Z,98927.94
2019-05-02T05:32:10.047Z,98929.72
2019-05-02T05:34:38.046Z,98936.59
2019-05-02T05:37:13.367Z,98937.95
2019-05-02T05:39:42.914Z,98942.53
2019-05-02T05:42:10.708Z,98948.42
2019-05-02T05:44:39.867Z,98939.41
2019-05-02T05:47:12.197Z,98946.47
2019-05-02T05:49:38.843Z,98941.23
2019-05-02T05:52:08.028Z,98940.52
2019-05-02T05:54:38.412Z,98940.95
2019-05-02T05:57:07.655Z,98947.57
2019-05-02T05:59:38.032Z,98936.32
2019-05-02T06:02:13.217Z,98943.47
2019-05-02T06:04:38.740Z,98944.84
2019-05-02T06:07:07.542Z,98941.91
2019-05-02T06:09:36.158Z,98942.47
2019-05-02T06:12:04.900Z,98947.00
2019-05-02T06:14:34.586Z,98942.48
2019-05-02T06:17:03.279Z,98944.67
2019-05-02T06:19:32.050Z,98945.50
2019-05-02T06:22:00.629Z,98945.07
2019-05-02T06:24:29.200Z,98947.42
2019-05-02T06:27:00.643Z,98948.88
2019-05-02T06:29:29.204Z,98950.17
2019-05-02T06:32:02.539Z,98948.72
2019-05-02T06:34:31.180Z,98946.25
2019-05-02T06:37:00.156Z,98942.91
2019-05-02T06:39:31.952Z,98944.27
2019-05-02T06:42:00.807Z,98947.03
2019-05-02T06:44:29.518Z,98943.97
2019-05-02T06:46:59.127Z,98949.77
2019-05-02T06:49:28.559Z,98949.66
2019-05-02T06:51:57.721Z,98942.37
2019-05-02T06:54:26.377Z,98942.37
2019-05-02T06:56:55.217Z,98944.69
2019-05-02T06:59:23.857Z,98947.11
2019-05-02T07:01:57.463Z,98942.02
2019-05-02T07:04:24.877Z,98950.80
2019-05-02T07:06:58.476Z,98945.30
2019-05-02T07:09:23.997Z,98949.73
2019-05-02T07:11:57.347Z,98951.33
2019-05-02T07:14:24.067Z,98942.99
2019-05-02T07:16:56.520Z,98945.80
2019-05-02T07:19:29.194Z,98949.15
2019-05-02T07:21:58.401Z,98945.66
2019-05-02T07:24:30.577Z,98944.42
2019-05-02T07:26:58.133Z,98948.78
2019-05-02T07:29:26.852Z,98952.31
2019-05-02T07:31:55.421Z,98943.08
2019-05-02T07:34:24.110Z,98936.67
2019-05-02T07:36:52.791Z,98939.11
2019-05-02T07:39:21.525Z,98935.82
2019-05-02T07:41:50.198Z,98941.31
2019-05-02T07:44:18.901Z,98934.56
2019-05-02T07:46:51.809Z,98938.22
2019-05-02T07:49:20.657Z,98940.03
2019-05-02T07:51:52.312Z,98943.05
2019-05-02T07:54:19.303Z,98938.88
2019-05-02T07:56:53.432Z,98942.43
2019-05-02T07:59:23.434Z,98937.34
2019-05-02T08:01:50.906Z,98942.30
2019-05-02T08:04:19.659Z,98945.01
2019-05-02T08:06:48.299Z,98939.56
2019-05-02T08:09:16.954Z,98930.38
2019-05-02T08:11:45.503Z,98933.02
2019-05-02T08:14:14.192Z,98946.15
2019-05-02T08:16:42.687Z,98944.05
2019-05-02T08:19:11.266Z,98950.72
2019-05-02T08:21:39.898Z,98938.62
2019-05-02T08:24:08.558Z,98939.96
2019-05-02T08:26:38.820Z,98934.67
2019-05-02T08:29:09.038Z,98937.09
2019-05-02T08:31:37.604Z,98939.09
2019-05-02T08:34:14.617Z,98929.91
2019-05-02T08:36:39.294Z,98926.80
2019-05-02T08:39:08.043Z,98934.86
2019-05-02T08:41:36.616Z,98932.49
2019-05-02T08:44:05.398Z,98932.63
2019-05-02T08:46:34.077Z,98948.82
2019-05-02T08:49:02.586Z,98939.29
2019-05-02T08:51:31.146Z,98943.67
2019-05-02T08:53:59.722Z,98946.81
2019-05-02T08:56:28.295Z,98942.17
2019-05-02T08:58:56.937Z,98948.83
2019-05-02T09:01:34.816Z,98946.98
2019-05-02T09:03:57.038Z,98947.59
2019-05-02T09:06:25.816Z,98941.85
2019-05-02T09:08:54.504Z,98943.11
2019-05-02T09:11:23.155Z,98944.20
2019-05-02T09:13:52.577Z,98940.22
2019-05-02T09:16:28.394Z,98940.55
2019-05-02T09:18:54.078Z,98934.94
2019-05-02T09:21:22.101Z,98932.02
2019-05-02T09:23:51.737Z,98915.82
2019-05-02T09:26:33.265Z,98916.66
2019-05-02T09:28:51.695Z,98915.62
2019-05-02T09:31:22.504Z,98909.14
2019-05-02T09:33:52.072Z,98913.03
2019-05-02T09:36:22.743Z,98913.94
2019-05-02T09:38:55.899Z,98910.64
2019-05-02T09:41:22.252Z,98900.02
2019-05-02T09:43:52.384Z,98895.15
2019-05-02T09:46:21.744Z,98897.51
2019-05-02T09:48:51.967Z,98907.05
2019-05-02T09:51:21.640Z,98899.39
2019-05-02T09:53:52.384Z,98899.13
2019-05-02T09:56:21.978Z,98897.37
2019-05-02T09:58:56.204Z,98896.43
2019-05-02T10:01:22.684Z,98889.64
2019-05-02T10:03:51.854Z,98892.20
2019-05-02T10:06:20.621Z,98896.44
2019-05-02T10:08:49.327Z,98892.22
2019-05-02T10:11:22.557Z,98886.81
2019-05-02T10:13:48.418Z,98885.03
2019-05-02T10:16:23.600Z,98883.44
2019-05-02T10:18:52.287Z,98877.06
2019-05-02T10:21:22.640Z,98875.16
2019-05-02T10:23:58.561Z,98868.95
2019-05-02T10:26:24.455Z,98871.69
2019-05-02T10:28:53.357Z,98865.97
2019-05-02T10:31:22.217Z,98863.56
2019-05-02T10:33:52.913Z,98866.97
2019-05-02T10:36:23.923Z,98870.11
2019-05-02T10:38:54.904Z,98859.36
2019-05-02T10:41:22.472Z,98858.91
2019-05-02T10:43:55.197Z,98866.41
2019-05-02T10:46:33.488Z,98861.51
2019-05-02T10:49:02.009Z,98859.30
2019-05-02T10:51:34.687Z,98855.60
2019-05-02T10:54:05.628Z,98849.14
2019-05-02T10:56:34.275Z,98839.08
2019-05-02T10:59:02.908Z,98839.03
2019-05-02T11:01:33.220Z,98833.03
2019-05-02T11:04:06.489Z,98838.69
2019-05-02T11:06:37.238Z,98841.22
2019-05-02T11:09:08.445Z,98844.66
2019-05-02T11:11:37.080Z,98842.55
2019-05-02T11:14:13.323Z,98847.73
2019-05-02T11:16:46.138Z,98842.05
2019-05-02T11:19:28.426Z,98838.17
2019-05-02T11:21:59.106Z,98848.08
2019-05-02T11:24:27.404Z,98850.72
2019-05-02T11:26:56.047Z,98882.40
2019-05-02T11:29:24.606Z,98896.20
2019-05-02T11:31:53.307Z,98901.02
2019-05-02T11:34:22.205Z,98896.36
2019-05-02T11:36:52.722Z,98898.00
2019-05-02T11:39:28.664Z,98894.44
2019-05-02T11:41:52.722Z,98873.11
2019-05-02T11:44:22.607Z,98868.16
2019-05-02T11:46:52.177Z,98862.44
2019-05-02T11:49:23.902Z,98865.23
2019-05-02T11:51:56.947Z,98856.23
2019-05-02T11:54:22.857Z,98863.30
2019-05-02T11:56:53.565Z,98844.08
2019-05-02T11:59:27.633Z,98842.06
2019-05-02T12:02:09.560Z,98828.42
2019-05-02T12:04:36.336Z,98817.88
2019-05-02T12:07:05.218Z,98812.17
2019-05-02T12:09:33.913Z,98796.42
2019-05-02T12:12:02.720Z,98793.70
2019-05-02T12:14:32.872Z,98788.97
2019-05-02T12:17:02.587Z,98788.30
2019-05-02T12:19:32.272Z,98787.47
2019-05-02T12:22:02.660Z,98780.77
2019-05-02T12:24:31.981Z,98778.59
2019-05-02T12:27:02.544Z,98762.62
2019-05-02T12:29:31.221Z,98770.50
2019-05-02T12:31:59.859Z,98761.26
2019-05-02T12:34:28.582Z,98760.89
2019-05-02T12:36:57.210Z,98758.28
2019-05-02T12:39:25.893Z,98751.22
2019-05-02T12:41:54.823Z,98749.50
2019-05-02T12:44:23.840Z,98749.87
2019-05-02T12:46:52.553Z,98755.16
2019-05-02T12:49:26.964Z,98756.98
2019-05-02T12:51:52.495Z,98756.72
2019-05-02T12:54:22.038Z,98767.48
2019-05-02T12:56:52.759Z,98768.52
2019-05-02T12:59:22.530Z,98756.28
2019-05-02T13:01:51.921Z,98759.66
2019-05-02T13:04:22.781Z,98755.52
2019-05-02T13:06:53.078Z,98746.50
2019-05-02T13:09:23.420Z,98747.45
2019-05-02T13:11:56.255Z,98742.16
2019-05-02T13:14:26.682Z,98744.80
2019-05-02T13:17:01.222Z,98740.20
2019-05-02T13:19:40.151Z,98736.31
2019-05-02T13:22:18.900Z,98735.98
2019-05-02T13:24:54.145Z,98735.61
2019-05-02T13:27:20.176Z,98724.73
2019-05-02T13:29:52.289Z,98724.06
2019-05-02T13:32:32.137Z,98729.70
2019-05-02T13:35:08.489Z,98735.75
2019-05-02T13:37:37.193Z,98727.64
2019-05-02T13:40:09.072Z,98724.33
2019-05-02T13:42:37.707Z,98719.21
2019-05-02T13:45:09.486Z,98724.87
2019-05-02T13:47:38.139Z,98724.25
2019-05-02T13:50:08.048Z,98712.11
2019-05-02T13:52:36.688Z,98724.24
2019-05-02T13:55:13.058Z,98728.92
2019-05-02T13:57:46.741Z,98717.45
2019-05-02T14:00:17.492Z,98714.52
2019-05-02T14:02:46.703Z,98721.66
2019-05-02T14:05:16.501Z,98718.61
2019-05-02T14:07:54.254Z,98713.23
2019-05-02T14:10:39.229Z,98713.92
2019-05-02T14:13:04.139Z,98711.14
2019-05-02T14:15:34.425Z,98708.33
2019-05-02T14:18:03.145Z,98702.16
2019-05-02T14:20:33.051Z,98702.88
2019-05-02T14:23:02.338Z,98706.33
2019-05-02T14:25:32.106Z,98707.39
2019-05-02T14:28:02.907Z,98706.77
2019-05-02T14:30:38.738Z,98709.48
2019-05-02T14:33:03.341Z,98710.28
2019-05-02T14:35:36.820Z,98706.69
2019-05-02T14:38:09.364Z,98705.14
2019-05-02T14:40:48.114Z,98706.92
2019-05-02T14:43:18.390Z,98709.28
2019-05-02T14:45:51.008Z,98713.66
2019-05-02T14:48:22.226Z,98714.36
2019-05-02T14:50:52.092Z,98713.28
2019-05-02T14:53:22.094Z,98722.09
2019-05-02T14:55:53.179Z,98722.31
2019-05-02T14:58:27.150Z,98716.84
2019-05-02T15:00:56.871Z,98712.27
2019-05-02T15:03:28.421Z,98704.20
2019-05-02T15:05:58.983Z,98705.39
2019-05-02T15:08:26.323Z,98705.90
2019-05-02T15:10:56.652Z,98709.48
2019-05-02T15:13:25.424Z,98707.63
2019-05-02T15:15:54.102Z,98708.31
2019-05-02T15:18:22.846Z,98708.81
2019-05-02T15:20:52.093Z,98713.55
2019-05-02T15:23:22.764Z,98712.20
2019-05-02T15:25:55.862Z,98705.55
2019-05-02T15:28:22.819Z,98705.66
2019-05-02T15:31:05.629Z,98704.95
2019-05-02T15:33:38.630Z,98708.03
2019-05-02T15:36:08.907Z,98708.83
2019-05-02T15:38:45.568Z,98714.30
2019-05-02T15:41:12.641Z,98707.73
2019-05-02T15:43:39.187Z,98717.03
2019-05-02T15:46:08.908Z,98715.05
2019-05-02T15:48:37.536Z,98716.80
2019-05-02T15:51:08.909Z,98710.28
2019-05-02T15:53:48.492Z,98716.98
2019-05-02T15:56:19.729Z,98712.09
2019-05-02T15:58:44.915Z,98713.83
2019-05-02T16:01:17.962Z,98709.92
2019-05-02T16:03:48.236Z,98713.28
2019-05-02T16:06:23.931Z,98713.07
2019-05-02T16:08:47.274Z,98712.19
2019-05-02T16:11:19.494Z,98713.73
2019-05-02T16:13:52.724Z,98714.66
2019-05-02T16:16:21.962Z,98721.48
2019-05-02T16:18:52.640Z,98722.28
2019-05-02T16:21:28.856Z,98721.06
2019-05-02T16:24:14.676Z,98724.56
2019-05-02T16:26:44.916Z,98720.56
2019-05-02T16:29:14.906Z,98721.22
2019-05-02T16:31:44.629Z,98727.46
2019-05-02T16:34:15.031Z,98726.44
2019-05-02T16:36:43.703Z,98720.86
2019-05-02T16:39:13.633Z,98731.03
2019-05-02T16:41:49.189Z,98735.45
2019-05-02T16:44:13.213Z,98739.34
2019-05-02T16:46:43.826Z,98743.67
2019-05-02T16:49:15.667Z,98745.92
2019-05-02T16:51:43.153Z,98747.56
2019-05-02T16:54:12.745Z,98747.34
2019-05-02T16:56:45.929Z,98746.87
2019-05-02T16:59:16.868Z,98758.66
2019-05-02T17:01:45.155Z,98755.83
2019-05-02T17:04:13.888Z,98760.77
2019-05-02T17:06:42.716Z,98765.63
2019-05-02T17:09:28.699Z,98773.93
2019-05-02T17:11:55.786Z,98774.73
2019-05-02T17:14:24.520Z,98787.61
2019-05-02T17:16:55.884Z,98780.78
2019-05-02T17:19:26.177Z,98789.74
2019-05-02T17:21:56.460Z,98783.73
2019-05-02T17:24:26.209Z,98793.40
2019-05-02T17:26:54.678Z,98795.83
2019-05-02T17:29:23.366Z,98801.53
2019-05-02T17:31:55.500Z,98802.57
2019-05-02T17:34:30.034Z,98800.36
2019-05-02T17:36:52.789Z,98804.13
2019-05-02T17:39:22.330Z,98814.36
2019-05-02T17:41:52.335Z,98816.59
2019-05-02T17:44:24.154Z,98823.46
2019-05-02T17:46:58.552Z,98820.34
2019-05-02T17:49:23.897Z,98830.52
2019-05-02T17:52:18.301Z,98838.00
2019-05-02T17:54:42.370Z,98830.59
2019-05-02T17:57:11.862Z,98830.59
2019-05-02T17:59:42.190Z,98844.30
2019-05-02T18:02:12.374Z,98849.24
2019-05-02T18:04:41.914Z,98856.77
2019-05-02T18:07:11.689Z,98864.42
2019-05-02T18:09:41.855Z,98864.42
2019-05-02T18:12:12.653Z,98872.64
2019-05-02T18:14:42.159Z,98864.55
2019-05-02T18:17:12.618Z,98873.60
2019-05-02T18:19:42.594Z,98879.18
2019-05-02T18:22:23.423Z,98881.34
2019-05-02T18:24:42.813Z,98886.27
2019-05-02T18:27:12.928Z,98895.40
2019-05-02T18:29:45.375Z,98888.89
2019-05-02T18:32:12.794Z,98897.75
2019-05-02T18:34:41.928Z,98904.60
2019-05-02T18:37:10.539Z,98896.41
2019-05-02T18:39:42.618Z,98905.27
2019-05-02T18:42:16.620Z,98903.36
2019-05-02T18:44:48.183Z,98917.30
2019-05-02T18:47:20.114Z,98913.05
2019-05-02T18:49:44.893Z,98916.86
2019-05-02T18:52:13.540Z,98918.45
2019-05-02T18:54:44.063Z,98926.36
2019-05-02T18:57:12.607Z,98929.81
2019-05-02T18:59:42.680Z,98936.74
2019-05-02T19:02:11.512Z,98933.42
2019-05-02T19:04:42.240Z,98938.69
2019-05-02T19:07:14.333Z,98938.39
2019-05-02T19:09:50.423Z,98946.83
2019-05-02T19:12:19.426Z,98951.91
2019-05-02T19:14:44.709Z,98956.00
2019-05-02T19:17:13.349Z,98955.19
2019-05-02T19:19:42.068Z,98958.36
2019-05-02T19:22:13.241Z,98956.09
2019-05-02T19:24:41.935Z,98957.61
2019-05-02T19:27:12.923Z,98960.04
2019-05-02T19:29:42.456Z,98959.77
2019-05-02T19:32:12.251Z,98962.64
2019-05-02T19:34:41.802Z,98970.77
2019-05-02T19:37:12.176Z,98971.46
2019-05-02T19:39:44.684Z,98975.84
2019-05-02T19:42:17.124Z,98982.06
2019-05-02T19:44:44.164Z,98983.30
2019-05-02T19:47:17.362Z,98985.68
2019-05-02T19:49:47.313Z,98984.00
2019-05-02T19:52:13.585Z,98992.83
2019-05-02T19:54:43.617Z,98991.77
2019-05-02T19:57:17.184Z,98990.02
2019-05-02T19:59:43.900Z,98997.58
2019-05-02T20:02:12.655Z,98995.73
2019-05-02T20:04:42.617Z,98999.42
2019-05-02T20:07:14.178Z,99004.83
2019-05-02T20:09:46.064Z,99011.80
2019-05-02T20:12:15.604Z,99012.03
2019-05-02T20:14:47.506Z,99004.45
2019-05-02T20:17:20.209Z,99007.23
2019-05-02T20:19:47.583Z,99012.80
2019-05-02T20:22:16.395Z,99016.67
2019-05-02T20:24:55.566Z,99017.16
2019-05-02T20:27:23.141Z,99015.29
2019-05-02T20:29:52.239Z,99018.72
2019-05-02T20:32:22.083Z,99014.66
2019-05-02T20:34:51.022Z,99017.10
2019-05-02T20:37:21.924Z,99023.20
2019-05-02T20:39:50.085Z,99023.52
2019-05-02T20:42:18.737Z,99025.86
2019-05-02T20:44:47.380Z,99027.80
2019-05-02T20:47:18.983Z,99030.94
2019-05-02T20:49:47.620Z,99025.39
2019-05-02T20:52:16.271Z,99029.30
2019-05-02T20:54:44.925Z,99029.41
2019-05-02T20:57:13.563Z,99031.78
2019-05-02T20:59:42.215Z,99030.09
2019-05-02T21:02:13.752Z,99025.31
2019-05-02T21:04:42.641Z,99025.40
2019-05-02T21:07:15.840Z,99025.56
2019-05-02T21:09:52.513Z,99020.44
2019-05-02T21:12:21.452Z,99022.00
2019-05-02T21:14:52.199Z,99026.22
2019-05-02T21:17:22.095Z,99023.74
2019-05-02T21:19:50.831Z,99026.01
2019-05-02T21:22:22.400Z,99029.64
2019-05-02T21:24:53.727Z,99045.30
2019-05-02T21:27:22.413Z,99040.56
2019-05-02T21:29:52.248Z,99042.09
2019-05-02T21:32:22.870Z,99045.23
2019-05-02T21:34:52.050Z,99045.79
2019-05-02T21:37:22.599Z,99049.05
2019-05-02T21:39:52.043Z,99046.37
2019-05-02T21:42:22.583Z,99051.91
2019-05-02T21:44:51.767Z,99054.13
2019-05-02T21:47:22.321Z,99055.94
2019-05-02T21:50:08.558Z,99052.84
2019-05-02T21:52:38.762Z,99056.50
2019-05-02T21:55:25.661Z,99059.67
2019-05-02T21:57:54.304Z,99061.65
2019-05-02T22:00:26.833Z,99067.72
2019-05-02T22:02:55.466Z,99069.95
2019-05-02T22:05:24.114Z,99074.56
2019-05-02T22:07:52.763Z,99082.92
2019-05-02T22:10:22.731Z,99085.54
2019-05-02T22:12:53.884Z,99078.66
2019-05-02T22:15:22.463Z,99078.06
2019-05-02T22:17:52.285Z,99074.61
2019-05-02T22:20:22.877Z,99076.38
2019-05-02T22:22:52.039Z,99076.08
2019-05-02T22:25:22.167Z,99080.69
2019-05-02T22:27:53.880Z,99081.69
2019-05-02T22:30:21.974Z,99082.06
2019-05-02T22:32:51.704Z,99085.87
2019-05-02T22:35:21.661Z,99082.06
2019-05-02T22:37:52.155Z,99083.38
2019-05-02T22:40:21.801Z,99077.48
2019-05-02T22:42:52.344Z,99076.92
2019-05-02T22:45:21.811Z,99076.80
2019-05-02T22:47:52.051Z,99071.09
2019-05-02T22:50:22.026Z,99078.44
2019-05-02T22:52:52.231Z,99069.52
2019-05-02T22:55:22.582Z,99073.50
2019-05-02T22:57:51.808Z,99078.27
2019-05-02T23:00:21.691Z,99073.58
2019-05-02T23:02:52.374Z,99070.83
2019-05-02T23:05:20.814Z,99071.74
2019-05-02T23:07:49.499Z,99068.64
2019-05-02T23:10:18.135Z,99076.69
2019-05-02T23:12:46.717Z,99071.42
2019-05-02T23:15:15.356Z,99065.97
2019-05-02T23:17:43.995Z,99067.73
2019-05-02T23:20:12.969Z,99068.33
2019-05-02T23:22:41.887Z,99064.13
2019-05-02T23:25:14.280Z,99063.50
2019-05-02T23:27:47.056Z,99062.31
2019-05-02T23:30:17.591Z,99059.44
2019-05-02T23:32:46.241Z,99063.23
2019-05-02T23:35:14.893Z,99058.01
2019-05-02T23:37:43.546Z,99058.18
2019-05-02T23:40:12.505Z,99057.30
2019-05-02T23:42:41.726Z,99055.59
2019-05-02T23:45:12.119Z,99062.27
2019-05-02T23:47:42.149Z,99064.22
2019-05-02T23:50:12.156Z,99063.75
2019-05-02T23:52:40.841Z,99059.83
2019-05-02T23:55:09.641Z,99054.20
2019-05-02T23:57:38.284Z,99064.94
